Time;durP1;ratioP1;P1;durP2;ratioP2;P2;SDS_P1;SDS_P2;PMS_P1;PMS_P2;Temp;Humidity;BMP_temperature;BMP_pressure;BME280_temperature;BME280_humidity;BME280_pressure;Samples;Min_cycle;Max_cycle;Signal;HPM_P1;HPM_P2
2022/09/06 00:00:30;;;;;;;;;;;20.60;43.60;;;;;;447143;264;1586;-50
2022/09/06 00:02:32;;;;;;;;;;;20.60;43.60;;;;;;447007;265;1274;-50
2022/09/06 00:04:33;;;;;;;;;;;20.60;43.70;;;;;;447420;264;1335;-50
2022/09/06 00:06:35;;;;;;;;;;;20.60;43.70;;;;;;446920;264;2429;-50
2022/09/06 00:08:36;;;;;;;;;;;20.60;43.70;;;;;;447379;264;1938;-50
2022/09/06 00:10:37;;;;;;;;;;;20.70;43.80;;;;;;446975;265;1297;-50
2022/09/06 00:12:39;;;;;;;;;;;20.60;43.70;;;;;;446998;264;1290;-50
2022/09/06 00:14:40;;;;;;;;;;;20.60;43.80;;;;;;447008;265;1355;-50
2022/09/06 00:16:41;;;;;;;;;;;20.60;43.80;;;;;;447315;264;1252;-51
2022/09/06 00:18:43;;;;;;;;;;;20.60;43.80;;;;;;447203;264;1257;-51
2022/09/06 00:20:44;;;;;;;;;;;20.60;43.90;;;;;;446975;265;1250;-50
2022/09/06 00:22:46;;;;;;;;;;;20.60;43.80;;;;;;447069;264;1220;-50
2022/09/06 00:24:47;;;;;;;;;;;20.60;43.90;;;;;;447340;264;1253;-50
2022/09/06 00:26:48;;;;;;;;;;;20.70;44.00;;;;;;447271;264;2172;-50
2022/09/06 00:28:50;;;;;;;;;;;20.60;44.00;;;;;;447421;264;1255;-51
2022/09/06 00:30:51;;;;;;;;;;;20.60;44.00;;;;;;447413;264;1288;-50
2022/09/06 00:32:52;;;;;;;;;;;20.60;44.00;;;;;;447425;264;1416;-50
2022/09/06 00:34:54;;;;;;;;;;;20.60;44.00;;;;;;447021;265;1351;-50
2022/09/06 00:36:55;;;;;;;;;;;20.60;44.10;;;;;;447030;264;1257;-51
2022/09/06 00:38:57;;;;;;;;;;;20.60;44.20;;;;;;447408;264;1274;-50
2022/09/06 00:40:58;;;;;;;;;;;20.60;44.20;;;;;;447345;264;1422;-51
2022/09/06 00:42:59;;;;;;;;;;;20.60;44.30;;;;;;447146;264;1347;-50
2022/09/06 00:45:01;;;;;;;;;;;20.60;44.30;;;;;;447149;264;1259;-50
2022/09/06 00:47:02;;;;;;;;;;;20.60;44.30;;;;;;447356;264;2181;-50
2022/09/06 00:49:03;;;;;;;;;;;20.60;44.30;;;;;;447312;264;1444;-50
2022/09/06 00:51:04;;;;;;;;;;;20.60;44.30;;;;;;447175;264;1386;-51
2022/09/06 00:53:06;;;;;;;;;;;20.60;44.30;;;;;;447249;264;1354;-51
2022/09/06 00:55:07;;;;;;;;;;;20.60;44.30;;;;;;447318;264;1321;-50
2022/09/06 00:57:09;;;;;;;;;;;20.60;44.40;;;;;;447254;264;1259;-51
2022/09/06 00:59:10;;;;;;;;;;;20.60;44.50;;;;;;447124;264;1320;-51
2022/09/06 01:01:11;;;;;;;;;;;20.60;44.50;;;;;;447248;264;1261;-50
2022/09/06 01:03:13;;;;;;;;;;;20.60;44.50;;;;;;447449;264;1265;-49
2022/09/06 01:05:14;;;;;;;;;;;20.60;44.50;;;;;;447354;264;1216;-50
2022/09/06 01:07:15;;;;;;;;;;;20.60;44.50;;;;;;447435;264;2176;-51
2022/09/06 01:09:17;;;;;;;;;;;20.60;44.50;;;;;;447427;264;1499;-50
2022/09/06 01:11:18;;;;;;;;;;;20.60;44.60;;;;;;447115;264;1317;-50
2022/09/06 01:13:19;;;;;;;;;;;20.60;44.50;;;;;;447110;264;1308;-50
2022/09/06 01:15:21;;;;;;;;;;;20.60;44.60;;;;;;447455;264;1358;-49
2022/09/06 01:17:22;;;;;;;;;;;20.60;44.60;;;;;;447032;265;1298;-50
2022/09/06 01:19:24;;;;;;;;;;;20.60;44.70;;;;;;447167;264;1121;-50
2022/09/06 01:21:25;;;;;;;;;;;20.60;44.60;;;;;;447042;265;1292;-51
2022/09/06 01:23:27;;;;;;;;;;;20.60;44.70;;;;;;447435;263;1280;-50
2022/09/06 01:25:28;;;;;;;;;;;20.60;44.70;;;;;;447429;264;1256;-50
2022/09/06 01:27:29;;;;;;;;;;;20.60;44.80;;;;;;447142;264;2201;-50
2022/09/06 01:29:31;;;;;;;;;;;20.60;44.80;;;;;;447079;265;1254;-50
2022/09/06 01:31:34;;;;;;;;;;;20.60;44.80;;;;;;447046;265;1200;-50
2022/09/06 01:33:34;;;;;;;;;;;20.60;44.80;;;;;;447317;264;2582;-50
2022/09/06 01:35:35;;;;;;;;;;;20.60;44.80;;;;;;447364;264;1227;-50
2022/09/06 01:37:36;;;;;;;;;;;20.60;44.80;;;;;;447288;264;1221;-50
2022/09/06 01:39:38;;;;;;;;;;;20.60;44.90;;;;;;447446;264;1248;-50
2022/09/06 01:41:39;;;;;;;;;;;20.60;44.90;;;;;;447026;265;1395;-49
2022/09/06 01:43:40;;;;;;;;;;;20.60;44.90;;;;;;447192;264;1303;-50
2022/09/06 01:45:42;;;;;;;;;;;20.60;44.90;;;;;;447046;265;1280;-50
2022/09/06 01:47:43;;;;;;;;;;;20.60;45.00;;;;;;447342;264;2184;-50
2022/09/06 01:49:44;;;;;;;;;;;20.60;45.00;;;;;;447370;264;1232;-51
2022/09/06 01:51:46;;;;;;;;;;;20.60;45.00;;;;;;447092;264;1282;-50
2022/09/06 01:53:47;;;;;;;;;;;20.50;45.00;;;;;;447098;264;1294;-50
2022/09/06 01:55:48;;;;;;;;;;;20.60;45.10;;;;;;447048;265;1278;-50
2022/09/06 01:57:50;;;;;;;;;;;20.60;45.10;;;;;;447380;263;1392;-50
2022/09/06 01:59:51;;;;;;;;;;;20.60;45.10;;;;;;447427;264;1585;-50
2022/09/06 02:01:53;;;;;;;;;;;20.50;45.10;;;;;;447053;265;1393;-49
2022/09/06 02:03:54;;;;;;;;;;;20.60;45.10;;;;;;447457;264;1267;-50
2022/09/06 02:05:55;;;;;;;;;;;20.60;45.10;;;;;;447074;264;1263;-50
2022/09/06 02:07:57;;;;;;;;;;;20.60;45.20;;;;;;447329;264;2192;-50
2022/09/06 02:09:58;;;;;;;;;;;20.50;45.20;;;;;;447098;265;1209;-51
2022/09/06 02:11:59;;;;;;;;;;;20.60;45.20;;;;;;447452;264;1293;-50
2022/09/06 02:14:01;;;;;;;;;;;20.60;45.20;;;;;;447230;264;1121;-50
2022/09/06 02:16:02;;;;;;;;;;;20.60;45.30;;;;;;447344;264;1091;-50
2022/09/06 02:18:04;;;;;;;;;;;20.60;45.30;;;;;;447463;264;1278;-50
2022/09/06 02:20:05;;;;;;;;;;;20.60;45.30;;;;;;447406;264;1156;-51
2022/09/06 02:22:06;;;;;;;;;;;20.60;45.30;;;;;;447441;264;1324;-50
2022/09/06 02:24:08;;;;;;;;;;;20.60;45.30;;;;;;447455;264;1194;-51
2022/09/06 02:26:09;;;;;;;;;;;20.60;45.30;;;;;;447094;265;1165;-50
2022/09/06 02:28:10;;;;;;;;;;;20.60;45.40;;;;;;447115;264;2169;-50
2022/09/06 02:30:12;;;;;;;;;;;20.50;45.30;;;;;;447170;264;1230;-51
2022/09/06 02:32:13;;;;;;;;;;;20.50;45.40;;;;;;447062;265;1193;-50
2022/09/06 02:34:15;;;;;;;;;;;20.60;45.40;;;;;;447466;264;1251;-51
2022/09/06 02:36:16;;;;;;;;;;;20.50;45.40;;;;;;447051;265;1297;-49
2022/09/06 02:38:17;;;;;;;;;;;20.50;45.40;;;;;;447084;265;1353;-50
2022/09/06 02:40:19;;;;;;;;;;;20.50;45.40;;;;;;447123;264;1297;-50
2022/09/06 02:42:20;;;;;;;;;;;20.50;45.30;;;;;;447050;265;1438;-50
2022/09/06 02:44:21;;;;;;;;;;;20.50;45.10;;;;;;447185;264;1752;-50
2022/09/06 02:46:23;;;;;;;;;;;20.50;45.10;;;;;;447018;265;1288;-50
2022/09/06 02:48:25;;;;;;;;;;;20.60;45.00;;;;;;447284;264;2185;-50
2022/09/06 02:50:26;;;;;;;;;;;20.60;45.00;;;;;;447005;265;1515;-49
2022/09/06 02:52:27;;;;;;;;;;;20.60;45.00;;;;;;447022;264;1305;-51
2022/09/06 02:54:29;;;;;;;;;;;20.60;44.90;;;;;;447063;265;1337;-50
2022/09/06 02:56:32;;;;;;;;;;;20.60;45.00;;;;;;447195;264;2030;-50
2022/09/06 02:58:32;;;;;;;;;;;20.60;45.00;;;;;;447088;265;2421;-50
2022/09/06 03:00:33;;;;;;;;;;;20.60;44.90;;;;;;447394;264;1286;-50
2022/09/06 03:02:35;;;;;;;;;;;20.60;44.90;;;;;;447421;264;1524;-51
2022/09/06 03:04:36;;;;;;;;;;;20.60;44.80;;;;;;447161;264;1319;-50
2022/09/06 03:06:37;;;;;;;;;;;20.60;44.80;;;;;;447338;264;1254;-51
2022/09/06 03:08:39;;;;;;;;;;;20.60;44.70;;;;;;447444;264;2224;-50
2022/09/06 03:10:40;;;;;;;;;;;20.60;44.60;;;;;;447082;265;1260;-49
2022/09/06 03:12:41;;;;;;;;;;;20.60;44.50;;;;;;447066;264;1312;-51
2022/09/06 03:14:43;;;;;;;;;;;20.60;44.50;;;;;;447079;265;1304;-50
2022/09/06 03:16:44;;;;;;;;;;;20.60;44.50;;;;;;447360;267;1406;-49
2022/09/06 03:18:46;;;;;;;;;;;20.60;44.40;;;;;;447132;264;1351;-51
2022/09/06 03:20:47;;;;;;;;;;;20.60;44.30;;;;;;447056;265;1213;-50
2022/09/06 03:22:49;;;;;;;;;;;20.60;44.40;;;;;;447226;264;1426;-50
2022/09/06 03:24:50;;;;;;;;;;;20.60;44.40;;;;;;447483;264;1327;-50
2022/09/06 03:26:51;;;;;;;;;;;20.60;44.30;;;;;;447407;264;1392;-50
2022/09/06 03:28:53;;;;;;;;;;;20.70;44.30;;;;;;447458;264;2216;-50
2022/09/06 03:30:54;;;;;;;;;;;20.60;44.20;;;;;;447436;264;1223;-51
2022/09/06 03:32:55;;;;;;;;;;;20.60;44.20;;;;;;447466;264;1243;-50
2022/09/06 03:34:58;;;;;;;;;;;20.60;44.10;;;;;;447474;264;1270;-50
2022/09/06 03:36:58;;;;;;;;;;;20.60;44.00;;;;;;447484;264;2289;-50
2022/09/06 03:38:59;;;;;;;;;;;20.60;44.20;;;;;;447191;264;1329;-51
2022/09/06 03:41:01;;;;;;;;;;;20.60;44.10;;;;;;447474;264;1335;-50
2022/09/06 03:43:02;;;;;;;;;;;20.70;44.00;;;;;;447101;265;1241;-51
2022/09/06 03:45:04;;;;;;;;;;;20.70;44.00;;;;;;447269;264;1226;-51
2022/09/06 03:47:05;;;;;;;;;;;20.60;43.90;;;;;;447150;264;1965;-50
2022/09/06 03:49:09;;;;;;;;;;;20.70;43.90;;;;;;447251;264;2148;-50
2022/09/06 03:51:08;;;;;;;;;;;20.60;43.90;;;;;;447448;264;2162;-51
2022/09/06 03:53:09;;;;;;;;;;;20.70;43.90;;;;;;447105;265;1286;-51
2022/09/06 03:55:11;;;;;;;;;;;20.60;43.80;;;;;;447201;264;1234;-50
2022/09/06 03:57:12;;;;;;;;;;;20.60;43.80;;;;;;447272;264;1291;-51
2022/09/06 03:59:13;;;;;;;;;;;20.60;43.80;;;;;;447496;264;1242;-50
2022/09/06 04:01:15;;;;;;;;;;;20.60;43.80;;;;;;447434;264;1427;-50
2022/09/06 04:03:18;;;;;;;;;;;20.60;43.70;;;;;;447480;264;1240;-50
2022/09/06 04:05:19;;;;;;;;;;;20.60;43.70;;;;;;447353;264;1789;-51
2022/09/06 04:07:20;;;;;;;;;;;20.70;43.70;;;;;;447244;264;2189;-51
2022/09/06 04:09:21;;;;;;;;;;;20.60;43.70;;;;;;447254;264;1293;-50
2022/09/06 04:11:23;;;;;;;;;;;20.60;43.70;;;;;;447242;264;2085;-50
2022/09/06 04:13:24;;;;;;;;;;;20.70;43.70;;;;;;447472;264;1316;-49
2022/09/06 04:15:25;;;;;;;;;;;20.60;43.60;;;;;;447175;264;1259;-50
2022/09/06 04:17:27;;;;;;;;;;;20.70;43.60;;;;;;447059;265;1276;-51
2022/09/06 04:19:28;;;;;;;;;;;20.60;43.50;;;;;;447460;264;1343;-51
2022/09/06 04:21:29;;;;;;;;;;;20.70;43.50;;;;;;447289;264;1468;-51
2022/09/06 04:23:31;;;;;;;;;;;20.70;43.50;;;;;;447101;263;1328;-50
2022/09/06 04:25:32;;;;;;;;;;;20.60;43.40;;;;;;447401;264;1298;-51
2022/09/06 04:27:33;;;;;;;;;;;20.70;43.40;;;;;;446986;265;2217;-50
2022/09/06 04:29:35;;;;;;;;;;;20.60;43.40;;;;;;447177;264;1230;-50
2022/09/06 04:31:36;;;;;;;;;;;20.60;43.50;;;;;;447016;264;1637;-50
2022/09/06 04:33:37;;;;;;;;;;;20.60;43.40;;;;;;447153;264;1364;-50
2022/09/06 04:35:39;;;;;;;;;;;20.60;43.30;;;;;;447041;265;1291;-51
2022/09/06 04:37:40;;;;;;;;;;;20.70;43.40;;;;;;447049;265;1265;-50
2022/09/06 04:39:42;;;;;;;;;;;20.60;43.30;;;;;;447365;264;1275;-50
2022/09/06 04:41:43;;;;;;;;;;;20.60;43.30;;;;;;447431;264;1332;-50
2022/09/06 04:43:44;;;;;;;;;;;20.60;43.40;;;;;;447456;264;1257;-50
2022/09/06 04:45:46;;;;;;;;;;;20.70;43.30;;;;;;447194;264;1287;-50
2022/09/06 04:47:49;;;;;;;;;;;20.60;43.30;;;;;;447437;264;2173;-50
2022/09/06 04:49:48;;;;;;;;;;;20.60;43.30;;;;;;447021;265;2343;-50
2022/09/06 04:51:50;;;;;;;;;;;20.70;43.30;;;;;;447120;264;1257;-50
2022/09/06 04:53:51;;;;;;;;;;;20.60;43.20;;;;;;447335;264;1166;-51
2022/09/06 04:55:53;;;;;;;;;;;20.70;43.20;;;;;;447403;264;1206;-50
2022/09/06 04:57:55;;;;;;;;;;;20.70;43.20;;;;;;447256;264;1268;-50
2022/09/06 04:59:55;;;;;;;;;;;20.70;43.10;;;;;;447234;264;2210;-51
2022/09/06 05:01:57;;;;;;;;;;;20.60;43.10;;;;;;447012;265;1213;-50
2022/09/06 05:03:58;;;;;;;;;;;20.70;43.10;;;;;;447101;264;1057;-50
2022/09/06 05:05:59;;;;;;;;;;;20.60;43.10;;;;;;447285;264;1253;-50
2022/09/06 05:08:01;;;;;;;;;;;20.70;43.10;;;;;;447430;264;2164;-50
2022/09/06 05:10:02;;;;;;;;;;;20.60;43.00;;;;;;447080;264;1265;-50
2022/09/06 05:12:03;;;;;;;;;;;20.70;43.00;;;;;;447457;264;1207;-50
2022/09/06 05:14:05;;;;;;;;;;;20.70;43.00;;;;;;447476;264;1281;-50
2022/09/06 05:16:06;;;;;;;;;;;20.70;43.10;;;;;;447018;264;1272;-50
2022/09/06 05:18:07;;;;;;;;;;;20.60;43.20;;;;;;447458;264;1086;-50
2022/09/06 05:20:09;;;;;;;;;;;20.60;43.30;;;;;;447442;264;1154;-49
2022/09/06 05:22:10;;;;;;;;;;;20.60;43.50;;;;;;447115;264;1653;-50
2022/09/06 05:24:12;;;;;;;;;;;20.70;43.80;;;;;;447109;264;1276;-50
2022/09/06 05:26:13;;;;;;;;;;;20.70;44.00;;;;;;447145;264;1245;-49
2022/09/06 05:28:15;;;;;;;;;;;20.70;43.80;;;;;;447462;264;2180;-50
2022/09/06 05:30:16;;;;;;;;;;;20.70;43.80;;;;;;447445;264;1291;-50
2022/09/06 05:32:17;;;;;;;;;;;20.70;43.70;;;;;;447064;263;2473;-50
2022/09/06 05:34:19;;;;;;;;;;;20.80;43.60;;;;;;447193;264;1185;-50
2022/09/06 05:36:22;;;;;;;;;;;20.80;43.50;;;;;;446740;264;1216;-51
2022/09/06 05:38:21;;;;;;;;;;;20.70;43.40;;;;;;446727;265;1973;-50
2022/09/06 05:40:23;;;;;;;;;;;20.80;43.40;;;;;;447262;264;1337;-50
2022/09/06 05:42:24;;;;;;;;;;;20.80;43.50;;;;;;446923;265;1333;-50
2022/09/06 05:44:25;;;;;;;;;;;20.70;43.40;;;;;;446902;265;1242;-50
2022/09/06 05:46:27;;;;;;;;;;;20.80;43.40;;;;;;447148;264;1263;-50
2022/09/06 05:48:28;;;;;;;;;;;20.80;43.30;;;;;;446996;264;2213;-50
2022/09/06 05:50:29;;;;;;;;;;;20.80;43.20;;;;;;446841;264;1358;-50
2022/09/06 05:52:31;;;;;;;;;;;20.80;43.20;;;;;;447137;264;1442;-51
2022/09/06 05:54:32;;;;;;;;;;;20.80;43.20;;;;;;447283;264;2430;-50
2022/09/06 05:56:33;;;;;;;;;;;20.80;43.20;;;;;;446920;264;1265;-51
2022/09/06 05:58:35;;;;;;;;;;;20.80;43.20;;;;;;447323;264;1288;-51
2022/09/06 06:00:36;;;;;;;;;;;20.80;43.10;;;;;;447262;264;1230;-51
2022/09/06 06:02:38;;;;;;;;;;;20.80;43.10;;;;;;446951;264;1308;-50
2022/09/06 06:04:39;;;;;;;;;;;20.80;43.10;;;;;;446999;264;2458;-51
2022/09/06 06:06:41;;;;;;;;;;;20.80;43.10;;;;;;446881;265;1150;-51
2022/09/06 06:08:42;;;;;;;;;;;20.80;43.10;;;;;;446869;265;2185;-50
2022/09/06 06:10:43;;;;;;;;;;;20.80;43.20;;;;;;446817;264;1293;-50
2022/09/06 06:12:45;;;;;;;;;;;20.80;43.20;;;;;;446801;264;1510;-51
2022/09/06 06:14:46;;;;;;;;;;;20.70;43.10;;;;;;447048;264;1348;-50
2022/09/06 06:16:48;;;;;;;;;;;20.80;43.10;;;;;;446863;265;1382;-51
2022/09/06 06:18:49;;;;;;;;;;;20.70;43.20;;;;;;446997;264;1274;-51
2022/09/06 06:20:51;;;;;;;;;;;20.70;43.20;;;;;;447163;264;1324;-50
2022/09/06 06:22:52;;;;;;;;;;;20.70;43.30;;;;;;446956;264;1313;-50
2022/09/06 06:24:54;;;;;;;;;;;20.70;43.30;;;;;;446869;264;1203;-50
2022/09/06 06:26:55;;;;;;;;;;;20.80;43.50;;;;;;446920;264;1320;-50
2022/09/06 06:29:00;;;;;;;;;;;20.80;43.50;;;;;;446935;264;2229;-51
2022/09/06 06:30:58;;;;;;;;;;;20.80;43.40;;;;;;446845;265;2130;-50
2022/09/06 06:33:01;;;;;;;;;;;20.80;43.40;;;;;;446897;264;1219;-49
2022/09/06 06:35:01;;;;;;;;;;;20.80;43.40;;;;;;446846;264;1432;-50
2022/09/06 06:37:02;;;;;;;;;;;20.80;43.50;;;;;;446648;265;1635;-50
2022/09/06 06:39:04;;;;;;;;;;;20.70;43.60;;;;;;446928;264;1133;-50
2022/09/06 06:41:05;;;;;;;;;;;20.70;43.50;;;;;;446854;264;1700;-49
2022/09/06 06:43:09;;;;;;;;;;;20.80;43.60;;;;;;446820;264;1281;-50
2022/09/06 06:45:08;;;;;;;;;;;20.80;43.80;;;;;;446839;264;2031;-51
2022/09/06 06:47:09;;;;;;;;;;;20.80;44.00;;;;;;446360;264;1464;-50
2022/09/06 06:49:11;;;;;;;;;;;20.80;44.10;;;;;;446583;264;2173;-50
2022/09/06 06:51:12;;;;;;;;;;;20.80;44.20;;;;;;446526;265;1294;-50
2022/09/06 06:53:13;;;;;;;;;;;20.80;44.20;;;;;;446553;265;1668;-50
2022/09/06 06:55:15;;;;;;;;;;;20.80;44.20;;;;;;446681;264;1246;-50
2022/09/06 06:57:16;;;;;;;;;;;20.80;44.10;;;;;;446565;264;1631;-50
2022/09/06 06:59:17;;;;;;;;;;;20.80;44.30;;;;;;446647;264;1281;-50
2022/09/06 07:01:19;;;;;;;;;;;20.70;44.00;;;;;;446859;264;1312;-50
2022/09/06 07:03:20;;;;;;;;;;;20.80;44.20;;;;;;446838;264;1582;-50
2022/09/06 07:05:22;;;;;;;;;;;20.80;44.20;;;;;;446712;265;1457;-50
2022/09/06 07:07:23;;;;;;;;;;;20.80;44.10;;;;;;446945;264;1561;-50
2022/09/06 07:09:25;;;;;;;;;;;20.80;44.20;;;;;;446822;264;2189;-50
2022/09/06 07:11:26;;;;;;;;;;;20.70;44.10;;;;;;446787;264;2188;-51
2022/09/06 07:13:27;;;;;;;;;;;20.70;44.10;;;;;;446763;264;1226;-50
2022/09/06 07:15:29;;;;;;;;;;;20.80;44.20;;;;;;446826;264;1265;-50
2022/09/06 07:17:30;;;;;;;;;;;20.80;44.20;;;;;;446785;265;1273;-51
2022/09/06 07:19:31;;;;;;;;;;;20.80;44.20;;;;;;447049;264;1200;-51
2022/09/06 07:21:33;;;;;;;;;;;20.70;44.20;;;;;;446714;264;1228;-50
2022/09/06 07:23:34;;;;;;;;;;;20.70;44.30;;;;;;446719;265;1292;-50
2022/09/06 07:25:35;;;;;;;;;;;20.80;44.40;;;;;;446795;264;1381;-51
2022/09/06 07:27:37;;;;;;;;;;;20.80;44.30;;;;;;446611;265;1234;-50
2022/09/06 07:29:38;;;;;;;;;;;20.80;44.30;;;;;;446791;264;2422;-50
2022/09/06 07:31:39;;;;;;;;;;;20.70;44.30;;;;;;446579;265;1301;-50
2022/09/06 07:33:41;;;;;;;;;;;20.70;44.20;;;;;;446568;264;1323;-50
2022/09/06 07:35:42;;;;;;;;;;;20.70;44.30;;;;;;446674;264;1233;-50
2022/09/06 07:37:44;;;;;;;;;;;20.80;44.20;;;;;;446598;264;1236;-50
2022/09/06 07:39:45;;;;;;;;;;;20.80;44.30;;;;;;446551;265;1224;-51
2022/09/06 07:41:46;;;;;;;;;;;20.80;44.30;;;;;;446493;264;1832;-51
2022/09/06 07:43:48;;;;;;;;;;;20.70;44.30;;;;;;446578;264;1188;-50
2022/09/06 07:45:49;;;;;;;;;;;20.80;44.30;;;;;;446786;264;1736;-50
2022/09/06 07:47:50;;;;;;;;;;;20.80;44.20;;;;;;446546;265;1292;-50
2022/09/06 07:49:52;;;;;;;;;;;20.80;44.30;;;;;;446568;264;2208;-50
2022/09/06 07:51:53;;;;;;;;;;;20.80;44.40;;;;;;446583;265;2521;-49
2022/09/06 07:53:54;;;;;;;;;;;20.80;44.50;;;;;;446639;264;1189;-50
2022/09/06 07:55:56;;;;;;;;;;;20.80;44.40;;;;;;446546;265;1258;-50
2022/09/06 07:57:57;;;;;;;;;;;20.80;44.50;;;;;;446524;263;1254;-50
2022/09/06 07:59:59;;;;;;;;;;;20.80;44.50;;;;;;446596;264;1280;-51
2022/09/06 08:02:00;;;;;;;;;;;20.80;44.50;;;;;;446399;263;1449;-50
2022/09/06 08:04:01;;;;;;;;;;;20.80;44.50;;;;;;446502;264;1231;-50
2022/09/06 08:06:03;;;;;;;;;;;20.80;44.40;;;;;;446495;264;1360;-49
2022/09/06 08:08:04;;;;;;;;;;;20.80;44.50;;;;;;446632;264;1261;-50
2022/09/06 08:10:05;;;;;;;;;;;20.90;44.60;;;;;;446574;264;2212;-49
2022/09/06 08:12:07;;;;;;;;;;;20.90;44.50;;;;;;446610;265;1192;-51
2022/09/06 08:14:08;;;;;;;;;;;20.90;44.40;;;;;;446615;264;1310;-50
2022/09/06 08:16:10;;;;;;;;;;;20.90;44.60;;;;;;446615;265;1303;-50
2022/09/06 08:18:11;;;;;;;;;;;20.90;44.70;;;;;;446633;264;1251;-50
2022/09/06 08:20:12;;;;;;;;;;;20.90;44.70;;;;;;446644;262;1262;-50
2022/09/06 08:22:14;;;;;;;;;;;20.90;44.70;;;;;;446656;264;1304;-50
2022/09/06 08:24:15;;;;;;;;;;;20.90;44.60;;;;;;446793;262;1246;-50
2022/09/06 08:26:16;;;;;;;;;;;20.90;44.70;;;;;;446617;265;1309;-50
2022/09/06 08:28:18;;;;;;;;;;;20.90;44.60;;;;;;446572;264;1257;-49
2022/09/06 08:30:19;;;;;;;;;;;20.90;44.60;;;;;;446728;264;2231;-49
2022/09/06 08:32:20;;;;;;;;;;;20.90;44.60;;;;;;446727;265;1246;-49
2022/09/06 08:34:22;;;;;;;;;;;20.90;44.60;;;;;;446756;263;1277;-49
2022/09/06 08:36:25;;;;;;;;;;;21.00;44.70;;;;;;446652;263;1234;-50
2022/09/06 08:38:25;;;;;;;;;;;20.90;44.60;;;;;;446781;264;2082;-50
2022/09/06 08:40:26;;;;;;;;;;;20.90;44.70;;;;;;446734;263;1264;-50
2022/09/06 08:42:27;;;;;;;;;;;20.90;44.60;;;;;;446610;264;1203;-49
2022/09/06 08:44:29;;;;;;;;;;;20.90;44.60;;;;;;446714;262;1404;-50
2022/09/06 08:46:30;;;;;;;;;;;21.00;44.70;;;;;;446591;265;1253;-50
2022/09/06 08:48:32;;;;;;;;;;;20.90;44.80;;;;;;446754;264;1230;-49
2022/09/06 08:50:34;;;;;;;;;;;20.90;44.70;;;;;;446592;263;2228;-50
2022/09/06 08:52:36;;;;;;;;;;;20.90;44.70;;;;;;446622;265;1929;-50
2022/09/06 08:54:37;;;;;;;;;;;21.00;44.70;;;;;;446624;264;1197;-50
2022/09/06 08:56:39;;;;;;;;;;;21.00;44.70;;;;;;446593;263;1217;-50
2022/09/06 08:58:40;;;;;;;;;;;21.00;44.80;;;;;;446563;264;1308;-50
2022/09/06 09:00:41;;;;;;;;;;;21.00;44.80;;;;;;446748;264;1251;-50
2022/09/06 09:02:43;;;;;;;;;;;21.00;44.80;;;;;;446567;264;1356;-50
2022/09/06 09:04:45;;;;;;;;;;;21.00;44.80;;;;;;446472;265;1271;-50
2022/09/06 09:06:46;;;;;;;;;;;21.00;44.80;;;;;;446560;264;1557;-50
2022/09/06 09:08:47;;;;;;;;;;;21.00;45.00;;;;;;446609;265;1237;-50
2022/09/06 09:10:49;;;;;;;;;;;21.00;44.90;;;;;;446348;264;2188;-50
2022/09/06 09:12:50;;;;;;;;;;;21.00;45.00;;;;;;446433;263;1218;-50
2022/09/06 09:14:51;;;;;;;;;;;21.00;44.90;;;;;;446552;264;1196;-50
2022/09/06 09:16:53;;;;;;;;;;;21.00;45.00;;;;;;446555;263;1284;-50
2022/09/06 09:18:54;;;;;;;;;;;21.00;44.90;;;;;;446605;263;1292;-50
2022/09/06 09:20:55;;;;;;;;;;;21.00;45.10;;;;;;446514;263;1323;-50
2022/09/06 09:22:57;;;;;;;;;;;21.00;45.00;;;;;;446642;263;1610;-50
2022/09/06 09:24:58;;;;;;;;;;;21.00;45.10;;;;;;446419;265;1244;-50
2022/09/06 09:27:00;;;;;;;;;;;21.00;45.10;;;;;;446407;264;1449;-50
2022/09/06 09:29:01;;;;;;;;;;;21.00;45.10;;;;;;446421;263;1217;-50
2022/09/06 09:31:02;;;;;;;;;;;21.00;45.10;;;;;;446533;265;2226;-50
2022/09/06 09:33:04;;;;;;;;;;;21.00;45.10;;;;;;446605;263;1195;-50
2022/09/06 09:35:05;;;;;;;;;;;21.00;45.00;;;;;;446601;265;1297;-50
2022/09/06 09:37:06;;;;;;;;;;;21.00;45.10;;;;;;446833;262;1304;-50
2022/09/06 09:39:08;;;;;;;;;;;21.00;45.10;;;;;;446583;263;1211;-50
2022/09/06 09:41:09;;;;;;;;;;;21.00;45.10;;;;;;446738;259;1296;-50
2022/09/06 09:43:11;;;;;;;;;;;21.00;45.00;;;;;;446584;265;1255;-50
2022/09/06 09:45:12;;;;;;;;;;;21.00;45.00;;;;;;446769;264;1150;-50
2022/09/06 09:47:13;;;;;;;;;;;21.00;45.10;;;;;;446597;264;1295;-49
2022/09/06 09:49:15;;;;;;;;;;;21.00;45.20;;;;;;446713;264;1144;-50
2022/09/06 09:51:16;;;;;;;;;;;21.00;45.30;;;;;;446385;263;2201;-49
2022/09/06 09:53:17;;;;;;;;;;;21.00;45.40;;;;;;446424;264;1339;-50
2022/09/06 09:55:19;;;;;;;;;;;21.00;45.30;;;;;;446395;263;1100;-50
2022/09/06 09:57:20;;;;;;;;;;;21.00;45.20;;;;;;446488;264;1585;-51
2022/09/06 09:59:21;;;;;;;;;;;21.00;45.20;;;;;;446492;263;1189;-51
2022/09/06 10:01:23;;;;;;;;;;;21.00;45.20;;;;;;446536;264;1246;-51
2022/09/06 10:03:24;;;;;;;;;;;21.00;45.30;;;;;;446857;264;1188;-50
2022/09/06 10:05:26;;;;;;;;;;;21.00;45.30;;;;;;446673;264;1227;-51
2022/09/06 10:07:27;;;;;;;;;;;21.10;45.20;;;;;;446586;264;2127;-50
2022/09/06 10:09:28;;;;;;;;;;;21.10;45.20;;;;;;446713;264;1184;-51
2022/09/06 10:11:30;;;;;;;;;;;21.00;45.30;;;;;;446697;263;2145;-50
2022/09/06 10:13:32;;;;;;;;;;;21.10;45.40;;;;;;446689;263;1367;-51
2022/09/06 10:15:32;;;;;;;;;;;21.10;45.20;;;;;;446758;264;1390;-51
2022/09/06 10:17:33;;;;;;;;;;;21.00;45.30;;;;;;446519;265;1298;-50
2022/09/06 10:19:35;;;;;;;;;;;21.10;45.20;;;;;;446676;264;1136;-51
2022/09/06 10:21:37;;;;;;;;;;;21.10;45.20;;;;;;446646;264;1218;-51
2022/09/06 10:23:38;;;;;;;;;;;21.00;45.30;;;;;;446642;265;2308;-51
2022/09/06 10:25:39;;;;;;;;;;;21.00;45.10;;;;;;446655;265;1238;-50
2022/09/06 10:27:40;;;;;;;;;;;21.00;45.10;;;;;;446611;263;1236;-51
2022/09/06 10:29:42;;;;;;;;;;;21.00;45.20;;;;;;446636;264;2180;-51
2022/09/06 10:31:44;;;;;;;;;;;21.00;45.10;;;;;;446691;263;1239;-50
2022/09/06 10:33:45;;;;;;;;;;;21.00;45.10;;;;;;446592;263;1379;-51
2022/09/06 10:35:47;;;;;;;;;;;21.00;45.10;;;;;;446527;263;1569;-51
2022/09/06 10:37:48;;;;;;;;;;;21.00;45.10;;;;;;446654;263;1305;-50
2022/09/06 10:39:50;;;;;;;;;;;21.00;45.20;;;;;;446572;263;1451;-50
2022/09/06 10:41:53;;;;;;;;;;;21.00;45.20;;;;;;446578;263;1430;-50
2022/09/06 10:43:54;;;;;;;;;;;21.00;45.10;;;;;;446539;263;1338;-50
2022/09/06 10:45:56;;;;;;;;;;;21.00;45.10;;;;;;446428;263;1369;-50
2022/09/06 10:47:57;;;;;;;;;;;21.00;45.20;;;;;;446491;263;1241;-50
2022/09/06 10:49:59;;;;;;;;;;;21.00;45.20;;;;;;446596;263;2212;-50
2022/09/06 10:52:00;;;;;;;;;;;21.00;45.10;;;;;;446504;263;1447;-52
2022/09/06 10:54:01;;;;;;;;;;;21.00;45.10;;;;;;446512;263;1869;-51
2022/09/06 10:56:03;;;;;;;;;;;21.00;45.20;;;;;;446566;263;1220;-52
2022/09/06 10:58:04;;;;;;;;;;;21.00;45.20;;;;;;446620;263;1441;-52
2022/09/06 11:00:11;;;;;;;;;;;21.00;45.20;;;;;;446622;263;1166;-51
2022/09/06 11:02:09;;;;;;;;;;;21.00;45.20;;;;;;446435;263;1420;-50
2022/09/06 11:04:10;;;;;;;;;;;21.00;45.10;;;;;;446265;263;1472;-50
2022/09/06 11:06:12;;;;;;;;;;;21.00;45.10;;;;;;446493;263;1346;-50
2022/09/06 11:08:14;;;;;;;;;;;20.90;45.40;;;;;;446581;263;1498;-50
2022/09/06 11:10:15;;;;;;;;;;;21.00;45.20;;;;;;446468;263;2157;-50
2022/09/06 11:12:17;;;;;;;;;;;21.00;45.10;;;;;;446605;263;1192;-50
2022/09/06 11:14:18;;;;;;;;;;;20.90;45.20;;;;;;446670;263;1548;-50
2022/09/06 11:16:20;;;;;;;;;;;20.90;45.10;;;;;;446694;262;1471;-50
2022/09/06 11:18:22;;;;;;;;;;;20.90;45.20;;;;;;446400;263;1842;-50
2022/09/06 11:20:24;;;;;;;;;;;20.90;45.30;;;;;;446252;263;1537;-50
2022/09/06 11:22:25;;;;;;;;;;;20.90;45.30;;;;;;446365;258;1509;-50
2022/09/06 11:24:27;;;;;;;;;;;20.90;45.30;;;;;;446297;263;1728;-50
2022/09/06 11:26:28;;;;;;;;;;;20.90;45.30;;;;;;446500;264;1141;-51
2022/09/06 11:28:29;;;;;;;;;;;21.00;45.30;;;;;;446423;263;1421;-51
2022/09/06 11:30:31;;;;;;;;;;;21.00;45.30;;;;;;446479;264;2220;-51
2022/09/06 11:32:32;;;;;;;;;;;20.90;45.40;;;;;;446427;265;1196;-51
2022/09/06 11:34:34;;;;;;;;;;;21.00;45.20;;;;;;446317;265;1101;-50
2022/09/06 11:36:35;;;;;;;;;;;21.00;45.30;;;;;;446450;264;1203;-50
2022/09/06 11:38:36;;;;;;;;;;;20.90;45.40;;;;;;446614;264;1262;-51
2022/09/06 11:40:37;;;;;;;;;;;21.00;45.40;;;;;;446531;264;1179;-51
2022/09/06 11:42:39;;;;;;;;;;;21.00;45.40;;;;;;446363;264;1272;-51
2022/09/06 11:44:40;;;;;;;;;;;21.00;45.20;;;;;;446428;264;1229;-51
2022/09/06 11:46:42;;;;;;;;;;;21.00;45.20;;;;;;446448;263;1304;-50
2022/09/06 11:48:43;;;;;;;;;;;21.00;45.20;;;;;;446467;265;1553;-51
2022/09/06 11:50:45;;;;;;;;;;;20.90;45.30;;;;;;446459;265;2225;-51
2022/09/06 11:52:46;;;;;;;;;;;20.90;45.30;;;;;;446465;265;1279;-51
2022/09/06 11:54:47;;;;;;;;;;;21.00;45.30;;;;;;446588;263;1342;-51
2022/09/06 11:56:49;;;;;;;;;;;21.00;45.40;;;;;;446628;264;1535;-51